Time;durP1;ratioP1;P1;durP2;ratioP2;P2;SDS_P1;SDS_P2;PMS_P1;PMS_P2;Temp;Humidity;BMP_temperature;BMP_pressure;BME280_temperature;BME280_humidity;BME280_pressure;Samples;Min_cycle;Max_cycle;Signal;HPM_P1;HPM_P2
2021/06/13 00:00:39;;;;;;;3.80;3.47;;;;;;;16.99;96.72;99759.25;1713288;82;21011;-40
2021/06/13 00:03:06;;;;;;;4.33;3.92;;;;;;;16.97;96.53;99755.85;1704247;82;21023;-40
2021/06/13 00:05:32;;;;;;;4.58;4.15;;;;;;;16.95;96.42;99747.57;1703825;83;21031;-40
2021/06/13 00:08:00;;;;;;;4.70;3.75;;;;;;;16.91;96.49;99749.72;1708772;82;20964;-42
2021/06/13 00:10:27;;;;;;;4.47;4.08;;;;;;;16.90;96.51;99747.17;1710450;82;21492;-38
2021/06/13 00:12:53;;;;;;;5.40;3.42;;;;;;;16.87;96.53;99741.58;1709958;82;20960;-45
2021/06/13 00:15:23;;;;;;;4.58;3.25;;;;;;;16.86;96.67;99743.43;1711846;82;20964;-40
2021/06/13 00:17:51;;;;;;;8.20;3.50;;;;;;;16.86;97.03;99739.39;1706465;83;21432;-42
2021/06/13 00:20:22;;;;;;;6.10;3.05;;;;;;;16.84;97.35;99730.61;1702875;83;22212;-41
2021/06/13 00:22:49;;;;;;;3.87;3.45;;;;;;;16.82;97.42;99729.06;1697731;83;21491;-43
2021/06/13 00:25:16;;;;;;;4.35;3.20;;;;;;;16.78;97.34;99709.68;1699780;83;21555;-40
2021/06/13 00:27:42;;;;;;;3.77;3.37;;;;;;;16.78;97.44;99708.80;1709194;82;20996;-45
2021/06/13 00:30:10;;;;;;;4.03;2.77;;;;;;;16.75;97.63;99701.00;1712897;82;20992;-41
2021/06/13 00:32:37;;;;;;;5.83;3.05;;;;;;;16.73;97.75;99705.68;1709697;83;21539;-43
2021/06/13 00:35:04;;;;;;;3.35;3.05;;;;;;;16.72;97.91;99703.48;1712470;83;21023;-41
2021/06/13 00:37:32;;;;;;;3.00;2.70;;;;;;;16.70;98.08;99697.91;1710440;83;20966;-41
2021/06/13 00:39:59;;;;;;;3.67;2.80;;;;;;;16.70;98.27;99696.56;1707578;82;21447;-42
2021/06/13 00:42:25;;;;;;;3.30;2.27;;;;;;;16.69;98.46;99691.69;1712552;83;20948;-42
2021/06/13 00:44:52;;;;;;;3.35;3.02;;;;;;;16.67;98.72;99690.98;1710199;83;21049;-40
2021/06/13 00:47:18;;;;;;;4.90;2.70;;;;;;;16.68;98.86;99689.97;1710985;83;20956;-40
2021/06/13 00:49:45;;;;;;;3.95;2.85;;;;;;;16.68;98.97;99686.44;1708145;82;20983;-40
2021/06/13 00:52:12;;;;;;;3.47;3.00;;;;;;;16.68;99.09;99684.58;1712458;83;21554;-40
2021/06/13 00:54:39;;;;;;;3.35;3.05;;;;;;;16.68;99.21;99682.40;1703422;82;20964;-41
2021/06/13 00:57:06;;;;;;;3.83;3.42;;;;;;;16.68;99.40;99682.40;1699352;83;21008;-41
2021/06/13 00:59:33;;;;;;;4.83;3.22;;;;;;;16.65;99.69;99681.69;1702989;82;20980;-40
2021/06/13 01:01:59;;;;;;;5.03;3.40;;;;;;;16.65;99.87;99670.09;1706129;83;20960;-41
2021/06/13 01:04:27;;;;;;;4.90;3.15;;;;;;;16.64;100.00;99668.40;1684426;83;21353;-38
2021/06/13 01:07:07;;;;;;;3.70;3.20;;;;;;;16.60;100.00;99667.83;1708747;83;21323;-40
2021/06/13 01:09:41;;;;;;;5.05;3.15;;;;;;;16.59;100.00;99666.15;1702948;83;20968;-43
2021/06/13 01:12:17;;;;;;;3.37;3.08;;;;;;;16.59;100.00;99666.15;1708373;83;21802;-40
2021/06/13 01:15:08;;;;;;;5.33;3.37;;;;;;;16.59;100.00;99665.31;1700402;83;21022;-41
2021/06/13 01:18:09;;;;;;;3.17;2.87;;;;;;;16.60;100.00;99666.98;1697829;82;20980;-40
2021/06/13 01:20:50;;;;;;;4.58;3.10;;;;;;;16.62;100.00;99658.28;1695032;82;20969;-41
2021/06/13 01:23:34;;;;;;;3.00;2.70;;;;;;;16.63;100.00;99655.92;1698371;82;21025;-42
2021/06/13 01:26:41;;;;;;;4.87;3.60;;;;;;;16.65;100.00;99652.08;1652813;85;21000;-38
2021/06/13 01:29:35;;;;;;;3.55;2.70;;;;;;;16.63;100.00;99648.72;1650440;85;21056;-40
2021/06/13 01:32:08;;;;;;;4.47;3.42;;;;;;;16.62;100.00;99647.00;1651725;85;20968;-42
2021/06/13 01:34:42;;;;;;;5.30;3.40;;;;;;;16.62;100.00;99649.70;1650014;85;21336;-40
2021/06/13 01:37:13;;;;;;;3.85;2.85;;;;;;;16.62;100.00;99648.35;1652273;85;21553;-39
2021/06/13 01:39:40;;;;;;;4.37;3.95;;;;;;;16.60;100.00;99639.58;1653617;85;21028;-39
2021/06/13 01:42:09;;;;;;;4.28;3.70;;;;;;;16.58;100.00;99637.55;1650924;85;21089;-39
2021/06/13 01:44:40;;;;;;;3.37;3.08;;;;;;;16.57;100.00;99633.15;1650723;85;21501;-42
2021/06/13 01:47:07;;;;;;;4.12;3.27;;;;;;;16.56;100.00;99631.97;1651866;85;21000;-40
2021/06/13 01:49:34;;;;;;;5.97;3.42;;;;;;;16.55;100.00;99636.98;1654002;85;21482;-42
2021/06/13 01:52:00;;;;;;;5.80;3.12;;;;;;;16.52;100.00;99631.41;1652414;85;20961;-41
2021/06/13 01:54:31;;;;;;;3.75;3.00;;;;;;;16.46;100.00;99635.20;1647575;85;21016;-42
2021/06/13 01:56:58;;;;;;;5.40;3.95;;;;;;;16.39;100.00;99633.08;1648496;85;20979;-41
2021/06/13 01:59:27;;;;;;;3.85;3.22;;;;;;;16.34;100.00;99635.87;1646847;85;21012;-46
2021/06/13 02:01:57;;;;;;;3.58;3.27;;;;;;;16.32;100.00;99632.48;1613309;87;20992;-45
2021/06/13 02:04:26;;;;;;;4.50;3.15;;;;;;;16.32;100.00;99629.28;1700771;82;20951;-41
2021/06/13 02:06:59;;;;;;;4.08;3.47;;;;;;;16.33;100.00;99623.40;1683434;82;21008;-38
2021/06/13 02:09:31;;;;;;;2.80;2.60;;;;;;;16.35;100.00;99626.80;1710011;82;20956;-42
2021/06/13 02:12:02;;;;;;;3.85;3.10;;;;;;;16.36;100.00;99625.31;1705254;83;21620;-40
2021/06/13 02:14:31;;;;;;;3.58;3.27;;;;;;;16.36;100.00;99629.35;1712881;82;20999;-40
2021/06/13 02:17:02;;;;;;;3.75;3.33;;;;;;;16.38;100.00;99630.56;1705354;83;21453;-40
2021/06/13 02:19:31;;;;;;;4.57;3.10;;;;;;;16.38;100.00;99624.67;1690846;82;20996;-44
2021/06/13 02:22:01;;;;;;;6.40;3.72;;;;;;;16.39;100.00;99624.17;1705249;82;20983;-41
2021/06/13 02:24:32;;;;;;;3.77;3.15;;;;;;;16.39;100.00;99622.33;1708673;82;21339;-40
2021/06/13 02:27:00;;;;;;;5.80;4.17;;;;;;;16.41;100.00;99622.19;1709872;82;20960;-39
2021/06/13 02:29:28;;;;;;;5.47;4.97;;;;;;;16.41;100.00;99617.65;1712547;82;21440;-40
2021/06/13 02:31:55;;;;;;;21.60;19.20;;;;;;;16.42;100.00;99620.67;1707323;82;20958;-42
2021/06/13 02:34:24;;;;;;;9.18;7.40;;;;;;;16.43;100.00;99615.66;1710045;83;20979;-42
2021/06/13 02:36:53;;;;;;;6.33;4.53;;;;;;;16.44;100.00;99618.69;1709572;82;20957;-41
2021/06/13 02:39:20;;;;;;;5.17;3.95;;;;;;;16.43;100.00;99614.32;1711721;83;21479;-41
2021/06/13 02:41:49;;;;;;;8.13;4.00;;;;;;;16.44;100.00;99613.31;1713546;82;20977;-39
2021/06/13 02:44:15;;;;;;;5.90;3.83;;;;;;;16.46;100.00;99610.98;1709964;82;21753;-38
2021/06/13 02:46:42;;;;;;;4.42;3.92;;;;;;;16.48;100.00;99613.00;1711908;83;20995;-40
2021/06/13 02:49:10;;;;;;;5.83;4.03;;;;;;;16.49;100.00;99603.95;1714002;82;21474;-43
2021/06/13 02:51:42;;;;;;;5.47;3.80;;;;;;;16.53;100.00;99602.64;1713203;82;21459;-39
2021/06/13 02:54:10;;;;;;;5.72;4.30;;;;;;;16.54;100.00;99602.51;1686592;83;21866;-40
2021/06/13 02:56:44;;;;;;;5.67;4.70;;;;;;;16.55;100.00;99597.46;1712034;83;20933;-43
2021/06/13 02:59:35;;;;;;;6.40;4.00;;;;;;;16.57;100.00;99591.44;1712634;82;20952;-40
2021/06/13 03:02:03;;;;;;;7.25;4.45;;;;;;;16.60;100.00;99592.98;1719809;82;21018;-40
2021/06/13 03:04:31;;;;;;;4.90;3.83;;;;;;;16.63;100.00;99594.02;1721900;82;21003;-40
2021/06/13 03:07:00;;;;;;;5.47;4.35;;;;;;;16.67;100.00;99595.43;1713904;83;21439;-41
2021/06/13 03:09:29;;;;;;;6.78;4.17;;;;;;;16.71;100.00;99594.64;1706588;82;20985;-40
2021/06/13 03:11:56;;;;;;;5.65;4.47;;;;;;;16.74;100.00;99595.69;1712280;83;20980;-40
2021/06/13 03:14:24;;;;;;;5.62;4.15;;;;;;;16.76;100.00;99594.53;1712226;82;20995;-42
2021/06/13 03:16:52;;;;;;;5.00;4.50;;;;;;;16.79;100.00;99596.95;1686083;83;21022;-40
2021/06/13 03:19:18;;;;;;;6.37;4.50;;;;;;;16.81;100.00;99590.92;1720524;82;20901;-40
2021/06/13 03:21:47;;;;;;;4.80;4.33;;;;;;;16.85;100.00;99594.15;1706644;82;21539;-41
2021/06/13 03:24:14;;;;;;;5.10;4.60;;;;;;;16.89;100.00;99596.90;1713962;82;20922;-40
2021/06/13 03:26:44;;;;;;;5.12;3.83;;;;;;;16.93;100.00;99591.54;1714955;83;20980;-41
2021/06/13 03:29:12;;;;;;;4.72;4.22;;;;;;;16.99;100.00;99597.68;1686603;83;21008;-43
2021/06/13 03:31:39;;;;;;;7.12;4.08;;;;;;;17.05;100.00;99591.67;1660970;83;20977;-40
2021/06/13 03:34:08;;;;;;;4.70;4.17;;;;;;;17.11;100.00;99591.58;1686133;83;20968;-40
2021/06/13 03:36:37;;;;;;;5.05;4.12;;;;;;;17.16;100.00;99590.63;1685631;83;21939;-40
2021/06/13 03:39:04;;;;;;;4.40;3.87;;;;;;;17.22;100.00;99588.65;1640275;83;21036;-39
2021/06/13 03:41:34;;;;;;;4.53;3.65;;;;;;;17.28;100.00;99588.52;1687278;83;21495;-40
2021/06/13 03:44:01;;;;;;;6.10;4.05;;;;;;;17.32;100.00;99582.34;1685863;83;21606;-40
2021/06/13 03:46:27;;;;;;;4.70;3.62;;;;;;;17.39;100.00;99584.77;1681633;83;20983;-39
2021/06/13 03:48:55;;;;;;;4.80;4.30;;;;;;;17.45;100.00;99586.83;1682655;83;21483;-40
2021/06/13 03:51:22;;;;;;;4.90;3.95;;;;;;;17.50;100.00;99582.66;1683769;83;21433;-39
2021/06/13 03:53:54;;;;;;;5.08;4.45;;;;;;;17.55;100.00;99583.55;1663124;84;20953;-41
2021/06/13 03:56:19;;;;;;;8.58;4.47;;;;;;;17.61;100.00;99586.11;1676247;83;21581;-41
2021/06/13 03:58:47;;;;;;;5.37;4.55;;;;;;;17.65;100.00;99584.30;1681502;83;21539;-43
2021/06/13 04:01:16;;;;;;;6.12;3.72;;;;;;;17.70;100.00;99585.19;1657736;83;21414;-55
2021/06/13 04:03:52;;;;;;;6.83;4.13;;;;;;;17.74;100.00;99581.18;1682129;83;21000;-40
2021/06/13 04:06:22;;;;;;;5.75;3.85;;;;;;;17.80;100.00;99581.08;1669126;82;20978;-40
2021/06/13 04:08:50;;;;;;;;;;;;;;;17.86;100.00;99579.09;1705707;83;20968;-41
2021/06/13 04:11:18;;;;;;;6.70;5.90;;;;;;;17.93;100.00;99577.45;1698180;82;20816;-43
2021/06/13 04:13:45;;;;;;;10.53;7.25;;;;;;;17.98;100.00;99575.13;1704642;82;20964;-44
2021/06/13 04:16:15;;;;;;;6.67;4.85;;;;;;;18.04;100.00;99579.03;1711623;82;20948;-44
2021/06/13 04:19:18;;;;;;;4.75;4.30;;;;;;;18.09;100.00;99572.65;1657809;83;20964;-40
2021/06/13 04:21:47;;;;;;;6.05;4.75;;;;;;;18.15;100.00;99569.33;1679970;84;21000;-40
2021/06/13 04:24:16;;;;;;;4.60;4.12;;;;;;;18.21;100.00;99574.58;1681269;83;20992;-43
2021/06/13 04:26:44;;;;;;;6.60;4.58;;;;;;;18.25;100.00;99571.41;1683267;83;21026;-44
2021/06/13 04:29:11;;;;;;;4.90;4.08;;;;;;;18.30;100.00;99571.77;1685989;83;21533;-43
2021/06/13 04:31:38;;;;;;;4.87;4.37;;;;;;;18.35;100.00;99576.69;1661551;84;20955;-44
2021/06/13 04:34:05;;;;;;;6.67;5.17;;;;;;;18.40;100.00;99581.61;1681249;83;21041;-44
2021/06/13 04:36:32;;;;;;;11.70;10.58;;;;;;;18.44;100.00;99581.60;1684254;83;20955;-41
2021/06/13 04:38:58;;;;;;;14.45;13.15;;;;;;;18.48;100.00;99576.23;1674562;83;21468;-43
2021/06/13 04:41:25;;;;;;;8.75;7.62;;;;;;;18.52;100.00;99574.41;1661283;83;21527;-43
2021/06/13 04:43:52;;;;;;;6.90;5.15;;;;;;;18.57;100.00;99574.76;1681839;83;21039;-43
2021/06/13 04:46:22;;;;;;;5.05;4.30;;;;;;;18.62;100.00;99571.55;1676218;83;20952;-42
2021/06/13 04:48:47;;;;;;;5.08;4.00;;;;;;;18.67;100.00;99570.58;1675551;83;20967;-42
2021/06/13 04:51:14;;;;;;;5.87;4.62;;;;;;;18.74;100.00;99568.05;1653464;85;21040;-45
2021/06/13 04:53:51;;;;;;;5.03;4.12;;;;;;;18.80;100.00;99569.63;1644683;85;21569;-45
2021/06/13 04:57:01;;;;;;;4.53;4.00;;;;;;;18.85;100.00;99569.63;1642456;85;20977;-39
2021/06/13 04:59:28;;;;;;;5.53;4.15;;;;;;;18.90;100.00;99570.84;1672808;83;21027;-43
2021/06/13 05:01:55;;;;;;;5.60;3.72;;;;;;;18.99;100.00;99566.29;1654857;85;21008;-41
2021/06/13 05:04:23;;;;;;;8.73;4.50;;;;;;;19.03;100.00;99562.26;1677660;83;21444;-41
2021/06/13 05:06:51;;;;;;;3.98;3.55;;;;;;;19.09;100.00;99561.58;1657117;85;21528;-43
2021/06/13 05:09:18;;;;;;;4.30;3.90;;;;;;;19.13;100.00;99556.70;1676919;85;20948;-41
2021/06/13 05:11:45;;;;;;;6.92;3.98;;;;;;;19.19;100.00;99558.72;1676291;83;20967;-45
2021/06/13 05:14:11;;;;;;;4.87;4.47;;;;;;;19.24;100.00;99563.12;1676651;83;20975;-42
2021/06/13 05:16:41;;;;;;;4.33;3.92;;;;;;;19.30;100.00;99559.73;1675579;83;21008;-41
2021/06/13 05:19:09;;;;;;;5.65;4.12;;;;;;;19.36;100.00;99552.83;1685511;83;20973;-39
2021/06/13 05:21:35;;;;;;;4.03;3.60;;;;;;;19.40;100.00;99553.69;1673499;83;21448;-44
2021/06/13 05:24:02;;;;;;;5.22;4.15;;;;;;;19.46;100.00;99556.21;1681877;83;21038;-43
2021/06/13 05:26:29;;;;;;;5.67;3.90;;;;;;;19.49;100.00;99543.70;1683159;84;21551;-42
2021/06/13 05:28:57;;;;;;;5.47;3.22;;;;;;;19.55;100.00;99543.00;1676136;85;21035;-44
2021/06/13 05:31:23;;;;;;;6.08;4.90;;;;;;;19.62;100.00;99543.19;1654559;85;21040;-45
2021/06/13 05:33:51;;;;;;;6.03;3.92;;;;;;;19.67;100.00;99544.89;1656497;85;21006;-43
2021/06/13 05:36:19;;;;;;;5.75;3.92;;;;;;;19.73;100.00;99555.05;1677726;83;21001;-44
2021/06/13 05:38:46;;;;;;;5.97;4.55;;;;;;;19.79;100.00;99554.35;1678329;83;20984;-50
2021/06/13 05:41:12;;;;;;;4.83;4.12;;;;;;;19.82;99.89;99554.00;1656028;85;21000;-44
2021/06/13 05:43:41;;;;;;;4.92;3.83;;;;;;;19.88;98.86;99554.69;1659060;85;21005;-45
2021/06/13 05:46:08;;;;;;;6.50;3.75;;;;;;;19.93;97.52;99555.49;1682880;83;20968;-43
2021/06/13 05:48:36;;;;;;;5.17;3.92;;;;;;;19.98;96.79;99554.50;1657576;86;20972;-44
2021/06/13 05:51:03;;;;;;;5.97;5.37;;;;;;;20.04;97.19;99554.31;1657485;85;21020;-43
2021/06/13 05:53:30;;;;;;;4.47;4.00;;;;;;;20.09;97.01;99555.47;1655346;85;21453;-42
2021/06/13 05:55:57;;;;;;;4.28;3.47;;;;;;;20.14;94.80;99553.60;1684840;83;20976;-43
2021/06/13 05:58:23;;;;;;;3.65;3.35;;;;;;;20.18;92.29;99550.03;1685445;84;20948;-41
2021/06/13 06:00:50;;;;;;;6.08;4.12;;;;;;;20.23;91.91;99547.12;1687462;84;20984;-44
2021/06/13 06:03:16;;;;;;;4.95;3.85;;;;;;;20.28;90.91;99547.96;1683641;84;20980;-41
2021/06/13 06:05:43;;;;;;;5.00;3.60;;;;;;;20.32;89.57;99543.90;1625693;87;21449;-39
2021/06/13 06:08:10;;;;;;;4.30;3.80;;;;;;;20.36;89.07;99539.83;1642533;86;20988;-39
2021/06/13 06:10:38;;;;;;;4.33;3.70;;;;;;;20.42;89.47;99545.88;1638692;86;21059;-40
2021/06/13 06:13:05;;;;;;;4.12;3.62;;;;;;;20.47;88.94;99536.72;1639085;86;20972;-42
2021/06/13 06:15:34;;;;;;;4.75;3.58;;;;;;;20.52;87.74;99535.69;1639508;86;20985;-45
2021/06/13 06:18:01;;;;;;;3.60;3.30;;;;;;;20.58;87.19;99535.52;1639086;86;20972;-39
2021/06/13 06:20:28;;;;;;;4.70;3.75;;;;;;;20.65;87.26;99539.20;1641459;86;21029;-43
2021/06/13 06:22:55;;;;;;;5.15;3.37;;;;;;;20.72;87.81;99531.22;1639401;86;20933;-44
2021/06/13 06:25:22;;;;;;;5.33;3.35;;;;;;;20.78;89.42;99537.27;1637863;86;20957;-40
2021/06/13 06:27:50;;;;;;;3.80;3.30;;;;;;;20.82;87.79;99525.59;1643866;86;21038;-43
2021/06/13 06:30:17;;;;;;;4.35;3.50;;;;;;;20.86;83.72;99531.80;1682975;84;20948;-39
2021/06/13 06:32:44;;;;;;;3.67;3.10;;;;;;;20.91;81.43;99535.33;1679958;84;20973;-40
2021/06/13 06:35:12;;;;;;;5.15;4.42;;;;;;;20.98;81.25;99535.46;1685382;84;21011;-41
2021/06/13 06:37:39;;;;;;;4.20;3.45;;;;;;;21.05;82.66;99532.38;1683054;84;20960;-40
2021/06/13 06:40:07;;;;;;;3.92;3.27;;;;;;;21.11;80.54;99530.28;1684649;84;20968;-38
2021/06/13 06:42:34;;;;;;;5.30;3.55;;;;;;;21.16;79.70;99525.16;1681734;84;20935;-38
2021/06/13 06:45:00;;;;;;;3.30;2.85;;;;;;;21.22;79.43;99535.30;1684224;84;21071;-41
2021/06/13 06:47:27;;;;;;;4.17;3.25;;;;;;;21.29;79.15;99531.33;1685069;84;21487;-40
2021/06/13 06:50:10;;;;;;;4.87;2.95;;;;;;;21.33;77.89;99534.86;1677921;84;21005;-41
2021/06/13 06:52:48;;;;;;;3.08;2.77;;;;;;;21.37;75.14;99528.05;1601995;88;21155;-44
2021/06/13 06:55:15;;;;;;;5.20;4.70;;;;;;;21.43;73.73;99522.44;1600385;88;21044;-40
2021/06/13 06:57:44;;;;;;;4.25;3.72;;;;;;;21.46;73.53;99525.30;1574578;89;21007;-43
2021/06/13 07:00:11;;;;;;;4.10;2.87;;;;;;;21.50;72.95;99522.56;1634056;86;21013;-41
2021/06/13 07:02:38;;;;;;;3.15;2.85;;;;;;;21.53;73.73;99527.09;1630754;86;21025;-42
2021/06/13 07:05:05;;;;;;;3.25;2.95;;;;;;;21.59;73.93;99530.93;1631007;86;21024;-40
2021/06/13 07:07:32;;;;;;;3.35;2.92;;;;;;;21.64;72.47;99531.22;1631655;86;21062;-41
2021/06/13 07:09:58;;;;;;;3.52;3.22;;;;;;;21.66;70.99;99530.53;1630029;86;21062;-42
2021/06/13 07:12:25;;;;;;;5.17;2.98;;;;;;;21.70;70.83;99527.79;1631091;86;20935;-41
2021/06/13 07:14:54;;;;;;;4.15;3.58;;;;;;;21.75;69.41;99529.95;1631262;87;21007;-42
2021/06/13 07:17:21;;;;;;;4.78;3.45;;;;;;;21.77;69.53;99516.53;1631910;86;21039;-42
2021/06/13 07:19:47;;;;;;;3.52;2.90;;;;;;;21.79;69.67;99517.16;1632771;86;21027;-43
2021/06/13 07:22:14;;;;;;;3.87;3.00;;;;;;;21.82;70.31;99519.53;1629639;86;20962;-41
2021/06/13 07:24:42;;;;;;;8.78;3.83;;;;;;;21.84;69.14;99520.69;1635230;86;21783;-44
2021/06/13 07:27:09;;;;;;;3.52;3.22;;;;;;;21.84;69.54;99524.75;1630008;86;21340;-40
2021/06/13 07:29:36;;;;;;;4.28;3.00;;;;;;;21.85;69.69;99517.45;1660384;82;20968;-41
2021/06/13 07:32:03;;;;;;;4.10;3.27;;;;;;;21.85;69.01;99522.39;1708467;84;20948;-40
2021/06/13 07:34:29;;;;;;;2.90;2.52;;;;;;;21.88;68.15;99519.30;1704145;83;21009;-38
2021/06/13 07:36:57;;;;;;;3.70;3.10;;;;;;;21.93;69.43;99517.39;1703804;84;20952;-41
2021/06/13 07:39:24;;;;;;;4.25;3.50;;;;;;;21.99;69.67;99516.62;1704017;82;20947;-42
2021/06/13 07:41:50;;;;;;;4.33;3.70;;;;;;;22.06;69.17;99519.45;1703590;83;20914;-39
2021/06/13 07:44:18;;;;;;;5.92;4.65;;;;;;;22.10;68.79;99516.17;1705605;82;21024;-42
2021/06/13 07:46:44;;;;;;;4.17;3.25;;;;;;;22.15;67.94;99512.87;1701607;83;20906;-42
2021/06/13 07:49:11;;;;;;;3.37;3.08;;;;;;;22.17;68.26;99517.08;1702941;83;21015;-44
2021/06/13 07:51:39;;;;;;;4.60;3.20;;;;;;;22.22;68.09;99515.20;1704184;82;21421;-42
2021/06/13 07:54:06;;;;;;;5.78;3.60;;;;;;;22.27;67.92;99517.36;1705054;83;20972;-41
2021/06/13 07:56:32;;;;;;;4.85;3.37;;;;;;;22.34;67.95;99513.70;1647228;85;20985;-40
2021/06/13 07:58:59;;;;;;;4.25;3.85;;;;;;;22.40;67.58;99514.31;1643610;86;20976;-40
2021/06/13 08:01:26;;;;;;;6.08;3.02;;;;;;;22.45;69.08;99515.95;1640730;86;20952;-41
2021/06/13 08:03:54;;;;;;;3.83;3.02;;;;;;;22.50;68.43;99516.70;1633214;86;21561;-42
2021/06/13 08:06:23;;;;;;;3.55;3.10;;;;;;;22.53;67.54;99516.84;1635103;86;20980;-41
2021/06/13 08:08:50;;;;;;;4.58;3.45;;;;;;;22.59;67.85;99512.86;1636000;86;20988;-41
2021/06/13 08:11:16;;;;;;;4.95;4.45;;;;;;;22.67;68.49;99517.34;1636844;86;20988;-42
2021/06/13 08:13:43;;;;;;;3.65;3.30;;;;;;;22.75;68.65;99523.17;1636580;86;21040;-41
2021/06/13 08:16:10;;;;;;;4.62;3.08;;;;;;;22.77;66.19;99519.23;1638396;86;21016;-42
2021/06/13 08:18:36;;;;;;;3.22;2.83;;;;;;;22.75;64.35;99522.64;1640037;86;20991;-40
2021/06/13 08:24:02;;;;;;;3.80;2.98;;;;;;;22.73;64.03;99523.38;1760569;79;23532;-42
2021/06/13 08:26:28;;;;;;;3.50;3.10;;;;;;;22.69;64.77;99515.28;1735678;80;21023;-41
2021/06/13 08:28:55;;;;;;;4.95;3.10;;;;;;;22.73;64.42;99517.95;1734963;81;20971;-41
2021/06/13 08:31:22;;;;;;;3.60;3.00;;;;;;;22.80;64.60;99515.28;1739155;81;20944;-41
2021/06/13 08:33:49;;;;;;;4.40;2.60;;;;;;;22.88;64.14;99513.80;1736932;81;20936;-41
2021/06/13 08:36:17;;;;;;;6.60;2.80;;;;;;;22.97;64.00;99513.17;1739369;80;20952;-41
2021/06/13 08:38:44;;;;;;;3.02;2.55;;;;;;;23.01;63.66;99508.55;1736552;81;21039;-41
2021/06/13 08:41:12;;;;;;;3.85;3.17;;;;;;;23.04;63.60;99506.80;1735531;80;20951;-41
2021/06/13 08:43:39;;;;;;;3.55;2.77;;;;;;;23.04;63.52;99510.88;1739596;80;21015;-42
2021/06/13 08:46:07;;;;;;;4.42;4.03;;;;;;;23.03;63.43;99506.49;1721454;83;21043;-41
2021/06/13 08:48:34;;;;;;;5.28;4.78;;;;;;;23.03;63.87;99511.93;1716528;82;20971;-41
2021/06/13 08:51:01;;;;;;;3.98;3.58;;;;;;;23.06;64.90;99513.42;1687597;84;21375;-42
2021/06/13 08:53:28;;;;;;;4.50;3.40;;;;;;;23.09;64.22;99510.30;1675808;84;20998;-41
2021/06/13 08:55:55;;;;;;;2.85;2.62;;;;;;;23.11;64.15;99509.08;1674209;85;20991;-42
2021/06/13 08:58:22;;;;;;;10.48;9.48;;;;;;;23.15;61.91;99515.47;1672459;84;21003;-41
2021/06/13 09:00:50;;;;;;;4.60;4.15;;;;;;;23.11;61.72;99511.80;1672368;84;21454;-44
2021/06/13 09:03:18;;;;;;;3.40;3.08;;;;;;;23.08;63.32;99515.40;1672061;84;21063;-43
2021/06/13 09:05:45;;;;;;;3.83;2.77;;;;;;;23.02;62.38;99509.39;1670298;85;20968;-42
2021/06/13 09:08:13;;;;;;;5.58;3.40;;;;;;;23.02;64.37;99512.11;1675585;84;21067;-42
2021/06/13 09:10:44;;;;;;;3.67;3.37;;;;;;;22.98;66.71;99524.39;1672629;85;20979;-41
2021/06/13 09:13:24;;;;;;;4.05;3.45;;;;;;;22.95;70.46;99532.91;1687769;83;20976;-41
2021/06/13 09:16:07;;;;;;;4.70;3.70;;;;;;;22.80;71.09;99543.30;1669046;85;21016;-44
2021/06/13 09:18:48;;;;;;;5.10;4.60;;;;;;;22.62;71.77;99545.59;1667508;84;21522;-41
2021/06/13 09:21:26;;;;;;;4.60;4.05;;;;;;;22.45;73.97;99536.31;1665712;85;20993;-43
2021/06/13 09:23:53;;;;;;;6.47;4.78;;;;;;;22.38;73.88;99542.17;1722272;81;20991;-42
2021/06/13 09:26:21;;;;;;;5.78;4.92;;;;;;;22.33;74.46;99541.05;1724648;82;21412;-42
2021/06/13 09:28:50;;;;;;;8.08;4.45;;;;;;;22.33;75.88;99548.68;1700389;83;21479;-42
2021/06/13 09:31:24;;;;;;;5.33;3.83;;;;;;;22.31;74.77;99552.09;1676533;84;20984;-42
2021/06/13 09:33:55;;;;;;;7.00;4.75;;;;;;;22.28;74.89;99558.42;1659012;85;21020;-43
2021/06/13 09:36:29;;;;;;;7.05;4.45;;;;;;;22.22;74.29;99559.47;1689153;84;20948;-42
2021/06/13 09:39:04;;;;;;;5.40;4.33;;;;;;;22.13;77.40;99559.75;1686409;84;20999;-44
2021/06/13 09:41:28;;;;;;;5.37;4.20;;;;;;;22.03;80.83;99560.85;1669835;85;21557;-43
2021/06/13 09:43:58;;;;;;;5.45;4.72;;;;;;;21.97;83.11;99563.45;1670089;85;20988;-43
2021/06/13 09:46:28;;;;;;;6.92;5.22;;;;;;;21.90;84.60;99563.86;1665737;85;20979;-45
2021/06/13 09:49:11;;;;;;;6.03;5.20;;;;;;;21.82;86.50;99560.23;1727445;81;21503;-46
2021/06/13 09:55:12;;;;;;;5.20;4.62;;;;;;;21.71;88.20;99555.75;1559115;90;21090;-44
2021/06/13 09:58:06;;;;;;;6.00;4.95;;;;;;;21.70;90.65;99552.72;1560036;90;21074;-43
2021/06/13 10:00:33;;;;;;;6.15;5.22;;;;;;;21.70;93.62;99542.70;1560919;90;21041;-42
2021/06/13 10:03:21;;;;;;;5.80;5.17;;;;;;;21.69;97.61;99544.23;1524942;92;21023;-42
2021/06/13 10:05:58;;;;;;;7.85;5.17;;;;;;;21.73;100.00;99546.41;1507147;92;21080;-43
2021/06/13 10:08:34;;;;;;;6.10;5.53;;;;;;;21.76;100.00;99555.52;1527084;92;21062;-42
2021/06/13 10:11:10;;;;;;;6.28;4.92;;;;;;;21.77;100.00;99549.09;1524141;92;21712;-43
2021/06/13 10:13:55;;;;;;;6.50;5.33;;;;;;;21.82;100.00;99547.15;1525722;92;21801;-44
2021/06/13 10:16:41;;;;;;;6.53;5.17;;;;;;;21.88;100.00;99537.45;1528425;92;21040;-43
2021/06/13 10:19:17;;;;;;;7.12;5.12;;;;;;;21.94;100.00;99530.75;1528148;92;21042;-44
2021/06/13 10:21:49;;;;;;;5.70;5.05;;;;;;;21.98;100.00;99540.73;1524734;92;21060;-45
2021/06/13 10:24:19;;;;;;;5.15;4.65;;;;;;;22.00;99.22;99540.88;1511759;93;21011;-45
2021/06/13 10:26:54;;;;;;;9.78;3.62;;;;;;;21.95;97.10;99527.02;1508833;93;21016;-45
2021/06/13 10:29:22;;;;;;;4.22;2.62;;;;;;;21.81;90.17;99539.53;1556122;91;21075;-44
2021/06/13 10:31:51;;;;;;;3.62;2.40;;;;;;;21.59;92.23;99555.34;1585396;86;20985;-43
2021/06/13 10:34:19;;;;;;;8.35;3.72;;;;;;;21.35;97.85;99552.30;1622159;86;20997;-42
2021/06/13 10:36:46;;;;;;;3.52;2.47;;;;;;;21.12;96.68;99569.41;1619039;86;21029;-45
2021/06/13 10:39:15;;;;;;;6.85;2.50;;;;;;;20.94;99.46;99585.95;1622378;86;21027;-42
2021/06/13 10:41:42;;;;;;;2.42;2.20;;;;;;;20.82;97.98;99591.44;1617877;86;21008;-44
2021/06/13 10:44:14;;;;;;;3.52;2.75;;;;;;;20.76;98.18;99592.13;1620701;86;21031;-42
2021/06/13 10:46:45;;;;;;;4.83;2.20;;;;;;;20.70;98.67;99595.03;1623159;86;20978;-44
2021/06/13 10:49:38;;;;;;;3.02;1.98;;;;;;;20.63;97.68;99596.75;1616168;87;20991;-43
2021/06/13 10:52:31;;;;;;;3.50;2.27;;;;;;;20.54;97.68;99592.38;1596674;88;20999;-42
2021/06/13 10:55:16;;;;;;;7.15;5.70;;;;;;;20.47;98.15;99602.22;1449220;97;21052;-43
2021/06/13 10:57:44;;;;;;;2.50;2.20;;;;;;;20.45;99.09;99595.61;1424440;99;21102;-47
2021/06/13 11:00:27;;;;;;;1.90;1.37;;;;;;;20.37;98.04;99590.23;1449507;97;21111;-43
2021/06/13 11:02:59;;;;;;;2.67;1.75;;;;;;;20.28;98.03;99603.45;1457903;97;21031;-44
2021/06/13 11:05:42;;;;;;;1.45;1.35;;;;;;;20.18;97.18;99608.20;1457050;97;21102;-44
2021/06/13 11:08:09;;;;;;;1.62;1.32;;;;;;;20.16;98.27;99619.23;1461912;97;21493;-42
2021/06/13 11:10:37;;;;;;;1.92;1.40;;;;;;;20.21;100.00;99619.55;1459071;97;21581;-41
2021/06/13 11:13:13;;;;;;;1.70;1.47;;;;;;;20.25;100.00;99629.00;1459733;97;21080;-44
2021/06/13 11:15:45;;;;;;;1.40;1.30;;;;;;;20.28;100.00;99622.39;1466459;97;21051;-43
2021/06/13 11:18:29;;;;;;;1.20;1.10;;;;;;;20.33;100.00;99629.48;1459716;97;21449;-42
2021/06/13 11:21:18;;;;;;;2.62;1.00;;;;;;;20.36;100.00;99615.62;1460177;97;21034;-43
2021/06/13 11:23:46;;;;;;;1.40;1.30;;;;;;;20.38;98.17;99614.08;1444447;97;21099;-42
2021/06/13 11:26:34;;;;;;;1.02;0.93;;;;;;;20.37;97.24;99620.52;1445074;98;21506;-44
2021/06/13 11:29:01;;;;;;;1.87;1.40;;;;;;;20.37;94.06;99617.82;1449119;98;21081;-42
2021/06/13 11:31:28;;;;;;;1.50;0.90;;;;;;;20.42;94.34;99614.92;1477382;85;21525;-44
2021/06/13 11:34:01;;;;;;;1.05;1.00;;;;;;;20.44;93.65;99621.01;1680967;83;20975;-40
2021/06/13 11:36:41;;;;;;;4.67;3.60;;;;;;;20.45;91.01;99613.72;1681576;83;20980;-41
2021/06/13 11:39:16;;;;;;;2.05;1.85;;;;;;;20.48;89.52;99610.66;1682877;83;21100;-42
2021/06/13 11:44:30;;;;;;;1.87;1.12;;;;;;;20.53;84.02;99603.70;1802278;77;21987;-43
2021/06/13 11:46:56;;;;;;;1.37;0.80;;;;;;;20.55;83.39;99611.69;1776509;78;20955;-42
2021/06/13 11:49:46;;;;;;;2.52;2.30;;;;;;;20.57;80.88;99618.30;1776957;80;21317;-42
2021/06/13 11:52:13;;;;;;;2.05;0.82;;;;;;;20.55;76.82;99613.05;1771999;80;20959;-41